sensor_id;sensor_type;location;lat;lon;timestamp;pressure;altitude;pressure_sealevel;temperature;humidity
69247;BME280;56358;56.328;43.992;2022-10-31T00:01:24;98261.41;;;0.18;78.45
69247;BME280;56358;56.328;43.992;2022-10-31T00:03:25;98254.97;;;0.22;78.49
69247;BME280;56358;56.328;43.992;2022-10-31T00:05:26;98253.91;;;0.24;78.53
69247;BME280;56358;56.328;43.992;2022-10-31T00:07:27;98259.06;;;0.26;78.38
69247;BME280;56358;56.328;43.992;2022-10-31T00:09:27;98258.72;;;0.30;78.34
69247;BME280;56358;56.328;43.992;2022-10-31T00:11:28;98260.06;;;0.36;78.36
69247;BME280;56358;56.328;43.992;2022-10-31T00:13:28;98260.81;;;0.38;78.18
69247;BME280;56358;56.328;43.992;2022-10-31T00:15:29;98263.34;;;0.40;77.61
69247;BME280;56358;56.328;43.992;2022-10-31T00:17:29;98259.63;;;0.42;77.61
69247;BME280;56358;56.328;43.992;2022-10-31T00:19:30;98265.66;;;0.44;78.03
69247;BME280;56358;56.328;43.992;2022-10-31T00:21:31;98260.47;;;0.43;78.05
69247;BME280;56358;56.328;43.992;2022-10-31T00:23:32;98267.66;;;0.41;77.62
69247;BME280;56358;56.328;43.992;2022-10-31T00:25:33;98265.03;;;0.41;77.73
69247;BME280;56358;56.328;43.992;2022-10-31T00:27:34;98269.66;;;0.37;77.86
69247;BME280;56358;56.328;43.992;2022-10-31T00:29:34;98270.19;;;0.42;78.07
69247;BME280;56358;56.328;43.992;2022-10-31T00:31:35;98268.38;;;0.43;78.25
69247;BME280;56358;56.328;43.992;2022-10-31T00:33:36;98265.66;;;0.44;78.75
69247;BME280;56358;56.328;43.992;2022-10-31T00:35:37;98266.50;;;0.45;78.82
69247;BME280;56358;56.328;43.992;2022-10-31T00:37:38;98264.25;;;0.52;78.95
69247;BME280;56358;56.328;43.992;2022-10-31T00:39:38;98265.19;;;0.50;78.78
69247;BME280;56358;56.328;43.992;2022-10-31T00:41:38;98266.88;;;0.52;78.85
69247;BME280;56358;56.328;43.992;2022-10-31T00:43:39;98276.38;;;0.54;79.27
69247;BME280;56358;56.328;43.992;2022-10-31T00:45:40;98274.56;;;0.55;78.97
69247;BME280;56358;56.328;43.992;2022-10-31T00:47:41;98274.81;;;0.52;78.95
69247;BME280;56358;56.328;43.992;2022-10-31T00:49:41;98276.25;;;0.56;79.16
69247;BME280;56358;56.328;43.992;2022-10-31T00:51:42;98277.94;;;0.57;78.93
69247;BME280;56358;56.328;43.992;2022-10-31T00:53:42;98286.19;;;0.52;78.49
69247;BME280;56358;56.328;43.992;2022-10-31T00:55:43;98280.91;;;0.52;78.74
69247;BME280;56358;56.328;43.992;2022-10-31T00:57:45;98282.59;;;0.53;78.73
69247;BME280;56358;56.328;43.992;2022-10-31T00:59:46;98281.38;;;0.46;78.57
69247;BME280;56358;56.328;43.992;2022-10-31T01:01:46;98284.59;;;0.49;78.55
69247;BME280;56358;56.328;43.992;2022-10-31T01:03:47;98282.19;;;0.46;78.68
69247;BME280;56358;56.328;43.992;2022-10-31T01:06:09;98291.78;;;0.47;78.81
69247;BME280;56358;56.328;43.992;2022-10-31T01:08:08;98276.91;;;0.46;78.59
69247;BME280;56358;56.328;43.992;2022-10-31T01:10:10;98292.84;;;0.45;78.57
69247;BME280;56358;56.328;43.992;2022-10-31T01:12:12;98287.47;;;0.46;78.64
69247;BME280;56358;56.328;43.992;2022-10-31T01:14:13;98289.88;;;0.49;78.91
69247;BME280;56358;56.328;43.992;2022-10-31T01:16:14;98298.66;;;0.50;78.73
69247;BME280;56358;56.328;43.992;2022-10-31T01:18:15;98294.44;;;0.47;78.85
69247;BME280;56358;56.328;43.992;2022-10-31T01:20:15;98295.06;;;0.51;78.70
69247;BME280;56358;56.328;43.992;2022-10-31T01:22:16;98291.44;;;0.52;79.02
69247;BME280;56358;56.328;43.992;2022-10-31T01:24:16;98300.94;;;0.55;78.85
69247;BME280;56358;56.328;43.992;2022-10-31T01:26:18;98302.13;;;0.50;78.67
69247;BME280;56358;56.328;43.992;2022-10-31T01:28:19;98300.53;;;0.48;78.73
69247;BME280;56358;56.328;43.992;2022-10-31T01:30:20;98303.91;;;0.50;79.00
69247;BME280;56358;56.328;43.992;2022-10-31T01:32:20;98312.53;;;0.52;78.50
69247;BME280;56358;56.328;43.992;2022-10-31T01:34:21;98309.31;;;0.48;78.62
69247;BME280;56358;56.328;43.992;2022-10-31T01:38:25;98312.25;;;0.44;79.04
69247;BME280;56358;56.328;43.992;2022-10-31T01:40:28;98309.72;;;0.42;78.80
69247;BME280;56358;56.328;43.992;2022-10-31T01:42:29;98320.03;;;0.45;78.71
69247;BME280;56358;56.328;43.992;2022-10-31T01:46:34;98312.88;;;0.47;78.44
69247;BME280;56358;56.328;43.992;2022-10-31T01:48:37;98326.38;;;0.43;78.58
69247;BME280;56358;56.328;43.992;2022-10-31T01:50:39;98330.50;;;0.47;78.59
69247;BME280;56358;56.328;43.992;2022-10-31T01:52:47;98328.59;;;0.49;78.46
69247;BME280;56358;56.328;43.992;2022-10-31T01:54:58;98326.19;;;0.46;78.73
69247;BME280;56358;56.328;43.992;2022-10-31T01:57:00;98333.16;;;0.47;78.50
69247;BME280;56358;56.328;43.992;2022-10-31T01:59:02;98328.06;;;0.44;78.24
69247;BME280;56358;56.328;43.992;2022-10-31T02:01:05;98334.91;;;0.46;78.38
69247;BME280;56358;56.328;43.992;2022-10-31T02:03:05;98327.00;;;0.46;78.64
69247;BME280;56358;56.328;43.992;2022-10-31T02:05:06;98327.13;;;0.45;78.26
69247;BME280;56358;56.328;43.992;2022-10-31T02:07:12;98327.88;;;0.47;78.20
69247;BME280;56358;56.328;43.992;2022-10-31T02:09:14;98334.69;;;0.49;77.96
69247;BME280;56358;56.328;43.992;2022-10-31T02:11:15;98338.72;;;0.42;77.46
69247;BME280;56358;56.328;43.992;2022-10-31T02:13:15;98333.34;;;0.44;77.37
69247;BME280;56358;56.328;43.992;2022-10-31T02:15:17;98349.91;;;0.46;77.17
69247;BME280;56358;56.328;43.992;2022-10-31T02:17:17;98337.56;;;0.46;77.19
69247;BME280;56358;56.328;43.992;2022-10-31T02:19:19;98343.59;;;0.48;76.96
69247;BME280;56358;56.328;43.992;2022-10-31T02:21:29;98341.78;;;0.49;76.65
69247;BME280;56358;56.328;43.992;2022-10-31T02:30:11;98348.97;;;0.47;76.43
69247;BME280;56358;56.328;43.992;2022-10-31T02:45:07;98362.44;;;0.42;77.09
69247;BME280;56358;56.328;43.992;2022-10-31T02:47:13;98367.84;;;0.41;77.52
69247;BME280;56358;56.328;43.992;2022-10-31T02:49:18;98364.44;;;0.39;77.56
69247;BME280;56358;56.328;43.992;2022-10-31T02:51:21;98368.06;;;0.38;77.97
69247;BME280;56358;56.328;43.992;2022-10-31T02:53:22;98370.69;;;0.38;77.75
69247;BME280;56358;56.328;43.992;2022-10-31T02:57:30;98379.66;;;0.35;78.29
69247;BME280;56358;56.328;43.992;2022-10-31T02:59:31;98372.34;;;0.39;78.13
69247;BME280;56358;56.328;43.992;2022-10-31T03:10:10;98377.63;;;0.39;77.64
69247;BME280;56358;56.328;43.992;2022-10-31T03:12:20;98392.84;;;0.35;77.36
69247;BME280;56358;56.328;43.992;2022-10-31T03:14:28;98388.41;;;0.36;77.42
69247;BME280;56358;56.328;43.992;2022-10-31T03:16:45;98389.03;;;0.39;77.53
69247;BME280;56358;56.328;43.992;2022-10-31T03:18:50;98381.13;;;0.39;77.27
69247;BME280;56358;56.328;43.992;2022-10-31T03:20:56;98381.97;;;0.40;76.96
69247;BME280;56358;56.328;43.992;2022-10-31T03:23:00;98379.97;;;0.43;76.62
69247;BME280;56358;56.328;43.992;2022-10-31T03:25:01;98381.03;;;0.41;76.36
69247;BME280;56358;56.328;43.992;2022-10-31T03:27:06;98380.38;;;0.37;76.72
69247;BME280;56358;56.328;43.992;2022-10-31T03:29:10;98390.81;;;0.39;76.61
69247;BME280;56358;56.328;43.992;2022-10-31T03:31:11;98385.75;;;0.36;76.73
69247;BME280;56358;56.328;43.992;2022-10-31T03:33:14;98387.69;;;0.33;76.92
69247;BME280;56358;56.328;43.992;2022-10-31T03:35:17;98389.22;;;0.36;76.83
69247;BME280;56358;56.328;43.992;2022-10-31T03:37:19;98399.69;;;0.38;76.54
69247;BME280;56358;56.328;43.992;2022-10-31T03:39:21;98390.81;;;0.39;76.55
69247;BME280;56358;56.328;43.992;2022-10-31T03:41:25;98391.88;;;0.36;76.13
69247;BME280;56358;56.328;43.992;2022-10-31T03:43:29;98392.72;;;0.37;76.29
69247;BME280;56358;56.328;43.992;2022-10-31T03:45:32;98389.88;;;0.40;76.50
69247;BME280;56358;56.328;43.992;2022-10-31T03:47:36;98398.72;;;0.39;76.11
69247;BME280;56358;56.328;43.992;2022-10-31T03:49:37;98402.34;;;0.38;76.31
69247;BME280;56358;56.328;43.992;2022-10-31T03:55:54;98406.84;;;0.36;76.73
69247;BME280;56358;56.328;43.992;2022-10-31T03:57:59;98400.75;;;0.35;76.68
69247;BME280;56358;56.328;43.992;2022-10-31T04:00:05;98412.34;;;0.32;76.99
69247;BME280;56358;56.328;43.992;2022-10-31T04:02:07;98415.69;;;0.35;76.96
69247;BME280;56358;56.328;43.992;2022-10-31T04:04:10;98416.56;;;0.35;77.38
69247;BME280;56358;56.328;43.992;2022-10-31T04:06:12;98423.72;;;0.33;77.08
69247;BME280;56358;56.328;43.992;2022-10-31T04:08:18;98417.72;;;0.31;77.64
69247;BME280;56358;56.328;43.992;2022-10-31T04:10:20;98421.09;;;0.33;77.54
69247;BME280;56358;56.328;43.992;2022-10-31T04:12:21;98419.38;;;0.32;77.30
69247;BME280;56358;56.328;43.992;2022-10-31T04:14:25;98425.72;;;0.29;77.54
69247;BME280;56358;56.328;43.992;2022-10-31T04:16:25;98418.25;;;0.23;78.33
69247;BME280;56358;56.328;43.992;2022-10-31T04:18:26;98423.94;;;0.30;78.53
69247;BME280;56358;56.328;43.992;2022-10-31T04:20:37;98423.06;;;0.29;78.41
69247;BME280;56358;56.328;43.992;2022-10-31T04:22:38;98431.84;;;0.30;78.95
69247;BME280;56358;56.328;43.992;2022-10-31T04:24:39;98432.56;;;0.32;78.80
69247;BME280;56358;56.328;43.992;2022-10-31T04:26:40;98427.81;;;0.37;79.16
69247;BME280;56358;56.328;43.992;2022-10-31T04:28:40;98431.00;;;0.42;79.02
69247;BME280;56358;56.328;43.992;2022-10-31T04:30:40;98440.38;;;0.46;78.95
69247;BME280;56358;56.328;43.992;2022-10-31T04:32:41;98437.97;;;0.43;78.52
69247;BME280;56358;56.328;43.992;2022-10-31T04:34:41;98445.13;;;0.41;78.68
69247;BME280;56358;56.328;43.992;2022-10-31T04:36:42;98445.75;;;0.45;78.61
69247;BME280;56358;56.328;43.992;2022-10-31T04:38:42;98444.28;;;0.41;78.83
69247;BME280;56358;56.328;43.992;2022-10-31T04:40:44;98449.44;;;0.42;78.87
69247;BME280;56358;56.328;43.992;2022-10-31T04:42:44;98447.97;;;0.38;78.65
69247;BME280;56358;56.328;43.992;2022-10-31T04:44:45;98446.16;;;0.39;78.84
69247;BME280;56358;56.328;43.992;2022-10-31T04:46:46;98457.47;;;0.41;78.94
69247;BME280;56358;56.328;43.992;2022-10-31T04:48:46;98451.44;;;0.39;79.32
69247;BME280;56358;56.328;43.992;2022-10-31T04:50:47;98445.75;;;0.45;79.20
69247;BME280;56358;56.328;43.992;2022-10-31T04:52:47;98458.63;;;0.49;79.07
69247;BME280;56358;56.328;43.992;2022-10-31T04:54:47;98456.63;;;0.53;78.93
69247;BME280;56358;56.328;43.992;2022-10-31T04:56:48;98460.84;;;0.56;78.85
69247;BME280;56358;56.328;43.992;2022-10-31T04:58:48;98470.03;;;0.50;78.50
69247;BME280;56358;56.328;43.992;2022-10-31T05:00:51;98463.69;;;0.53;78.77
69247;BME280;56358;56.328;43.992;2022-10-31T05:02:52;98470.84;;;0.50;78.93
69247;BME280;56358;56.328;43.992;2022-10-31T05:04:53;98470.84;;;0.50;78.86
69247;BME280;56358;56.328;43.992;2022-10-31T05:06:54;98474.44;;;0.49;78.68
69247;BME280;56358;56.328;43.992;2022-10-31T05:08:54;98477.94;;;0.50;79.01
69247;BME280;56358;56.328;43.992;2022-10-31T05:10:54;98469.16;;;0.49;78.90
69247;BME280;56358;56.328;43.992;2022-10-31T05:12:59;98482.25;;;0.51;78.84
69247;BME280;56358;56.328;43.992;2022-10-31T05:15:00;98477.72;;;0.53;79.09
69247;BME280;56358;56.328;43.992;2022-10-31T05:17:00;98487.22;;;0.56;79.36
69247;BME280;56358;56.328;43.992;2022-10-31T05:19:01;98488.69;;;0.60;78.82
69247;BME280;56358;56.328;43.992;2022-10-31T05:21:01;98489.53;;;0.60;78.80
69247;BME280;56358;56.328;43.992;2022-10-31T05:23:01;98493.84;;;0.61;78.82
69247;BME280;56358;56.328;43.992;2022-10-31T05:25:02;98503.44;;;0.62;78.76
69247;BME280;56358;56.328;43.992;2022-10-31T05:27:03;98497.47;;;0.60;78.37
69247;BME280;56358;56.328;43.992;2022-10-31T05:29:04;98496.59;;;0.60;78.25
69247;BME280;56358;56.328;43.992;2022-10-31T05:31:04;98501.88;;;0.60;78.37
69247;BME280;56358;56.328;43.992;2022-10-31T05:33:04;98504.50;;;0.60;78.24
69247;BME280;56358;56.328;43.992;2022-10-31T05:35:06;98503.66;;;0.59;77.98
69247;BME280;56358;56.328;43.992;2022-10-31T05:37:08;98507.25;;;0.58;78.00
69247;BME280;56358;56.328;43.992;2022-10-31T05:39:08;98516.84;;;0.59;78.15
69247;BME280;56358;56.328;43.992;2022-10-31T05:41:09;98515.16;;;0.58;78.18
69247;BME280;56358;56.328;43.992;2022-10-31T05:43:09;98529.00;;;0.62;78.19
69247;BME280;56358;56.328;43.992;2022-10-31T05:45:11;98522.75;;;0.63;77.91
69247;BME280;56358;56.328;43.992;2022-10-31T05:47:12;98523.16;;;0.70;77.83
69247;BME280;56358;56.328;43.992;2022-10-31T05:49:13;98531.84;;;0.72;77.70
69247;BME280;56358;56.328;43.992;2022-10-31T05:51:13;98539.84;;;0.70;77.89
69247;BME280;56358;56.328;43.992;2022-10-31T05:53:14;98549.13;;;0.76;77.99
69247;BME280;56358;56.328;43.992;2022-10-31T05:55:15;98545.34;;;0.80;77.88
69247;BME280;56358;56.328;43.992;2022-10-31T05:57:15;98556.09;;;0.90;78.00
69247;BME280;56358;56.328;43.992;2022-10-31T05:59:15;98561.91;;;0.95;77.25
69247;BME280;56358;56.328;43.992;2022-10-31T06:01:16;98560.66;;;1.00;77.23
69247;BME280;56358;56.328;43.992;2022-10-31T06:03:16;98562.31;;;1.02;76.69
69247;BME280;56358;56.328;43.992;2022-10-31T06:05:17;98560.53;;;1.02;76.22
69247;BME280;56358;56.328;43.992;2022-10-31T06:07:17;98564.53;;;0.95;76.26
69247;BME280;56358;56.328;43.992;2022-10-31T06:09:18;98560.53;;;0.89;76.41
69247;BME280;56358;56.328;43.992;2022-10-31T06:11:19;98566.22;;;0.96;76.40
69247;BME280;56358;56.328;43.992;2022-10-31T06:13:19;98564.25;;;0.99;76.51
69247;BME280;56358;56.328;43.992;2022-10-31T06:15:20;98571.09;;;1.02;76.34
69247;BME280;56358;56.328;43.992;2022-10-31T06:17:21;98570.25;;;1.02;76.06
69247;BME280;56358;56.328;43.992;2022-10-31T06:19:21;98564.00;;;1.03;75.50
69247;BME280;56358;56.328;43.992;2022-10-31T06:21:22;98568.25;;;1.05;76.20
69247;BME280;56358;56.328;43.992;2022-10-31T06:23:22;98567.50;;;1.03;75.77
69247;BME280;56358;56.328;43.992;2022-10-31T06:25:23;98568.78;;;1.10;75.81
69247;BME280;56358;56.328;43.992;2022-10-31T06:27:23;98576.25;;;1.16;75.76
69247;BME280;56358;56.328;43.992;2022-10-31T06:29:24;98577.94;;;1.17;75.13
69247;BME280;56358;56.328;43.992;2022-10-31T06:31:24;98572.88;;;1.14;75.06
69247;BME280;56358;56.328;43.992;2022-10-31T06:33:25;98582.69;;;1.12;75.54
69247;BME280;56358;56.328;43.992;2022-10-31T06:35:25;98583.75;;;1.10;75.31
69247;BME280;56358;56.328;43.992;2022-10-31T06:37:26;98591.66;;;1.10;75.50
69247;BME280;56358;56.328;43.992;2022-10-31T06:39:26;98588.94;;;1.11;75.53
69247;BME280;56358;56.328;43.992;2022-10-31T06:41:27;98587.44;;;1.20;75.52
69247;BME280;56358;56.328;43.992;2022-10-31T06:43:27;98598.13;;;1.19;74.70
69247;BME280;56358;56.328;43.992;2022-10-31T06:45:28;98598.00;;;1.20;74.87
69247;BME280;56358;56.328;43.992;2022-10-31T06:47:28;98590.84;;;1.22;74.75
69247;BME280;56358;56.328;43.992;2022-10-31T06:49:29;98594.94;;;1.26;74.77
69247;BME280;56358;56.328;43.992;2022-10-31T06:51:29;98601.81;;;1.29;74.57
69247;BME280;56358;56.328;43.992;2022-10-31T06:53:30;98598.94;;;1.19;74.14
69247;BME280;56358;56.328;43.992;2022-10-31T06:55:30;98598.41;;;1.27;74.31
69247;BME280;56358;56.328;43.992;2022-10-31T06:57:31;98602.97;;;1.25;73.92
69247;BME280;56358;56.328;43.992;2022-10-31T06:59:31;98600.63;;;1.20;73.94
69247;BME280;56358;56.328;43.992;2022-10-31T07:01:32;98597.69;;;1.25;74.12
69247;BME280;56358;56.328;43.992;2022-10-31T07:03:32;98604.44;;;1.29;73.93
69247;BME280;56358;56.328;43.992;2022-10-31T07:05:33;98598.94;;;1.32;73.66
69247;BME280;56358;56.328;43.992;2022-10-31T07:07:33;98603.88;;;1.37;73.82
69247;BME280;56358;56.328;43.992;2022-10-31T07:09:34;98602.53;;;1.44;73.71
69247;BME280;56358;56.328;43.992;2022-10-31T07:11:34;98617.31;;;1.46;72.96
69247;BME280;56358;56.328;43.992;2022-10-31T07:13:35;98617.09;;;1.49;72.94
69247;BME280;56358;56.328;43.992;2022-10-31T07:15:36;98613.28;;;1.54;72.98
69247;BME280;56358;56.328;43.992;2022-10-31T07:17:36;98610.31;;;1.58;73.47
69247;BME280;56358;56.328;43.992;2022-10-31T07:19:37;98618.13;;;1.60;73.33
69247;BME280;56358;56.328;43.992;2022-10-31T07:21:37;98620.88;;;1.58;71.37
69247;BME280;56358;56.328;43.992;2022-10-31T07:23:38;98606.88;;;1.45;70.92
69247;BME280;56358;56.328;43.992;2022-10-31T07:25:38;98616.25;;;1.49;71.62
69247;BME280;56358;56.328;43.992;2022-10-31T07:27:40;98610.75;;;1.52;72.04
69247;BME280;56358;56.328;43.992;2022-10-31T07:29:41;98623.19;;;1.50;72.06
69247;BME280;56358;56.328;43.992;2022-10-31T07:31:41;98611.59;;;1.53;71.11
69247;BME280;56358;56.328;43.992;2022-10-31T07:33:44;98615.28;;;1.50;71.41
69247;BME280;56358;56.328;43.992;2022-10-31T07:35:44;98624.69;;;1.54;71.43
69247;BME280;56358;56.328;43.992;2022-10-31T07:37:45;98629.41;;;1.62;71.99
69247;BME280;56358;56.328;43.992;2022-10-31T07:39:46;98638.63;;;1.69;71.60
69247;BME280;56358;56.328;43.992;2022-10-31T07:41:46;98629.41;;;1.75;71.02
69247;BME280;56358;56.328;43.992;2022-10-31T07:43:46;98632.69;;;1.78;70.98
69247;BME280;56358;56.328;43.992;2022-10-31T07:45:50;98635.41;;;1.77;71.52
69247;BME280;56358;56.328;43.992;2022-10-31T07:47:52;98640.50;;;1.80;70.99
69247;BME280;56358;56.328;43.992;2022-10-31T07:49:52;98640.63;;;1.78;71.02
69247;BME280;56358;56.328;43.992;2022-10-31T07:51:53;98649.59;;;1.76;71.45
69247;BME280;56358;56.328;43.992;2022-10-31T07:53:55;98640.69;;;1.77;71.17
69247;BME280;56358;56.328;43.992;2022-10-31T07:55:55;98642.72;;;1.73;70.75
69247;BME280;56358;56.328;43.992;2022-10-31T07:57:56;98649.31;;;1.67;70.86
69247;BME280;56358;56.328;43.992;2022-10-31T07:59:57;98644.63;;;1.71;71.11
69247;BME280;56358;56.328;43.992;2022-10-31T08:01:57;98643.69;;;1.72;71.43
69247;BME280;56358;56.328;43.992;2022-10-31T08:03:58;98658.13;;;1.79;71.29
69247;BME280;56358;56.328;43.992;2022-10-31T08:05:58;98650.94;;;1.81;70.61
69247;BME280;56358;56.328;43.992;2022-10-31T08:07:59;98652.13;;;1.77;70.18
69247;BME280;56358;56.328;43.992;2022-10-31T08:09:59;98649.91;;;1.71;70.34
69247;BME280;56358;56.328;43.992;2022-10-31T08:12:00;98653.50;;;1.70;70.34
69247;BME280;56358;56.328;43.992;2022-10-31T08:14:01;98652.66;;;1.70;70.16
69247;BME280;56358;56.328;43.992;2022-10-31T08:16:02;98666.41;;;1.75;70.09
69247;BME280;56358;56.328;43.992;2022-10-31T08:18:05;98666.09;;;1.66;68.49
69247;BME280;56358;56.328;43.992;2022-10-31T08:20:06;98663.47;;;1.66;68.65
69247;BME280;56358;56.328;43.992;2022-10-31T08:22:06;98673.06;;;1.67;68.83
69247;BME280;56358;56.328;43.992;2022-10-31T08:24:07;98676.97;;;1.62;67.31
69247;BME280;56358;56.328;43.992;2022-10-31T08:26:07;98683.41;;;1.58;68.07
69247;BME280;56358;56.328;43.992;2022-10-31T08:28:08;98683.63;;;1.55;68.38
69247;BME280;56358;56.328;43.992;2022-10-31T08:30:09;98687.00;;;1.57;68.33
69247;BME280;56358;56.328;43.992;2022-10-31T08:32:10;98689.56;;;1.58;68.14
69247;BME280;56358;56.328;43.992;2022-10-31T08:34:10;98682.59;;;1.57;68.49
69247;BME280;56358;56.328;43.992;2022-10-31T08:36:11;98694.22;;;1.55;68.56
69247;BME280;56358;56.328;43.992;2022-10-31T08:38:11;98698.25;;;1.47;69.00
69247;BME280;56358;56.328;43.992;2022-10-31T08:40:12;98694.00;;;1.45;67.54
69247;BME280;56358;56.328;43.992;2022-10-31T08:42:13;98686.91;;;1.45;68.41
69247;BME280;56358;56.328;43.992;2022-10-31T08:44:13;98691.97;;;1.48;68.63
69247;BME280;56358;56.328;43.992;2022-10-31T08:46:15;98697.25;;;1.48;69.16
69247;BME280;56358;56.328;43.992;2022-10-31T08:48:16;98696.00;;;1.54;68.58
69247;BME280;56358;56.328;43.992;2022-10-31T08:50:17;98696.09;;;1.53;69.01
69247;BME280;56358;56.328;43.992;2022-10-31T08:52:18;98700.31;;;1.55;68.81
69247;BME280;56358;56.328;43.992;2022-10-31T08:54:18;98696.22;;;1.64;68.79
69247;BME280;56358;56.328;43.992;2022-10-31T08:56:19;98699.03;;;1.74;68.65
69247;BME280;56358;56.328;43.992;2022-10-31T08:58:19;98703.69;;;1.70;66.88
69247;BME280;56358;56.328;43.992;2022-10-31T09:00:20;98712.69;;;1.67;66.97
69247;BME280;56358;56.328;43.992;2022-10-31T09:02:20;98703.09;;;1.66;66.44
69247;BME280;56358;56.328;43.992;2022-10-31T09:04:21;98716.06;;;1.70;66.25
69247;BME280;56358;56.328;43.992;2022-10-31T09:06:21;98708.03;;;1.71;66.49
69247;BME280;56358;56.328;43.992;2022-10-31T09:08:22;98721.13;;;1.73;66.64
69247;BME280;56358;56.328;43.992;2022-10-31T09:10:23;98731.50;;;1.63;66.03
69247;BME280;56358;56.328;43.992;2022-10-31T09:12:23;98725.91;;;1.55;65.87
69247;BME280;56358;56.328;43.992;2022-10-31T09:14:24;98734.78;;;1.54;66.17
69247;BME280;56358;56.328;43.992;2022-10-31T09:16:24;98730.25;;;1.56;66.65
69247;BME280;56358;56.328;43.992;2022-10-31T09:18:25;98727.03;;;1.63;66.91
69247;BME280;56358;56.328;43.992;2022-10-31T09:20:28;98727.03;;;1.63;66.44
69247;BME280;56358;56.328;43.992;2022-10-31T09:22:29;98727.81;;;1.65;66.64
69247;BME280;56358;56.328;43.992;2022-10-31T09:24:29;98720.41;;;1.71;67.08
69247;BME280;56358;56.328;43.992;2022-10-31T09:26:29;98729.59;;;1.78;67.15
69247;BME280;56358;56.328;43.992;2022-10-31T09:28:30;98737.09;;;1.84;66.75
69247;BME280;56358;56.328;43.992;2022-10-31T09:30:32;98730.75;;;1.87;66.64
69247;BME280;56358;56.328;43.992;2022-10-31T09:32:33;98739.41;;;1.89;66.53
69247;BME280;56358;56.328;43.992;2022-10-31T09:34:34;98740.38;;;1.88;66.29
69247;BME280;56358;56.328;43.992;2022-10-31T09:36:34;98740.03;;;1.79;66.53
69247;BME280;56358;56.328;43.992;2022-10-31T09:38:35;98739.97;;;1.81;66.38
69247;BME280;56358;56.328;43.992;2022-10-31T09:40:36;98742.06;;;1.76;66.78
69247;BME280;56358;56.328;43.992;2022-10-31T09:42:55;98750.09;;;1.74;66.59
69247;BME280;56358;56.328;43.992;2022-10-31T09:51:49;98758.44;;;1.68;66.39
69247;BME280;56358;56.328;43.992;2022-10-31T09:53:58;98769.00;;;1.68;66.85
69247;BME280;56358;56.328;43.992;2022-10-31T09:55:59;98768.06;;;1.69;66.66
69247;BME280;56358;56.328;43.992;2022-10-31T09:58:01;98771.22;;;1.61;65.99
69247;BME280;56358;56.328;43.992;2022-10-31T10:00:05;98780.00;;;1.62;66.75
69247;BME280;56358;56.328;43.992;2022-10-31T10:02:13;98777.34;;;1.62;67.14
69247;BME280;56358;56.328;43.992;2022-10-31T10:06:24;98771.66;;;1.68;67.05
69247;BME280;56358;56.328;43.992;2022-10-31T10:08:26;98789.50;;;1.64;66.67
69247;BME280;56358;56.328;43.992;2022-10-31T10:13:05;98786.88;;;1.64;67.29
69247;BME280;56358;56.328;43.992;2022-10-31T10:17:46;98795.31;;;1.57;66.66
69247;BME280;56358;56.328;43.992;2022-10-31T10:26:17;98799.22;;;1.38;67.61
69247;BME280;56358;56.328;43.992;2022-10-31T10:28:35;98797.63;;;1.36;67.74
69247;BME280;56358;56.328;43.992;2022-10-31T10:32:58;98802.47;;;1.42;67.38
69247;BME280;56358;56.328;43.992;2022-10-31T10:35:20;98803.84;;;1.34;67.39
69247;BME280;56358;56.328;43.992;2022-10-31T10:39:27;98811.00;;;1.32;67.61
69247;BME280;56358;56.328;43.992;2022-10-31T10:41:31;98807.53;;;1.32;68.14
69247;BME280;56358;56.328;43.992;2022-10-31T10:43:38;98817.97;;;1.33;67.92
69247;BME280;56358;56.328;43.992;2022-10-31T10:45:39;98809.94;;;1.35;68.26
69247;BME280;56358;56.328;43.992;2022-10-31T10:48:02;98812.41;;;1.38;68.04
69247;BME280;56358;56.328;43.992;2022-10-31T10:58:44;98821.50;;;1.34;67.93
69247;BME280;56358;56.328;43.992;2022-10-31T11:00:46;98812.41;;;1.38;67.92
69247;BME280;56358;56.328;43.992;2022-10-31T11:02:47;98828.88;;;1.42;68.19
69247;BME280;56358;56.328;43.992;2022-10-31T11:04:57;98819.06;;;1.44;67.82
69247;BME280;56358;56.328;43.992;2022-10-31T11:09:08;98823.31;;;1.46;68.01
69247;BME280;56358;56.328;43.992;2022-10-31T11:15:20;98827.50;;;1.36;68.23
69247;BME280;56358;56.328;43.992;2022-10-31T11:19:31;98817.69;;;1.38;69.36
69247;BME280;56358;56.328;43.992;2022-10-31T11:21:31;98825.69;;;1.37;69.55
69247;BME280;56358;56.328;43.992;2022-10-31T11:23:34;98822.22;;;1.36;69.62
69247;BME280;56358;56.328;43.992;2022-10-31T11:25:35;98821.16;;;1.39;69.87
69247;BME280;56358;56.328;43.992;2022-10-31T11:27:35;98820.94;;;1.42;70.59
69247;BME280;56358;56.328;43.992;2022-10-31T11:29:36;98821.81;;;1.42;70.84
69247;BME280;56358;56.328;43.992;2022-10-31T11:31:36;98826.56;;;1.37;71.32
69247;BME280;56358;56.328;43.992;2022-10-31T11:33:38;98832.56;;;1.26;72.20
69247;BME280;56358;56.328;43.992;2022-10-31T11:35:39;98845.31;;;1.20;73.31
69247;BME280;56358;56.328;43.992;2022-10-31T11:37:41;98844.75;;;1.14;73.98
69247;BME280;56358;56.328;43.992;2022-10-31T11:39:47;98838.81;;;1.11;74.78
69247;BME280;56358;56.328;43.992;2022-10-31T11:41:53;98833.19;;;1.03;75.19
69247;BME280;56358;56.328;43.992;2022-10-31T11:43:56;98845.00;;;0.97;75.85
69247;BME280;56358;56.328;43.992;2022-10-31T11:45:57;98850.66;;;0.91;76.98
69247;BME280;56358;56.328;43.992;2022-10-31T11:47:58;98849.06;;;0.88;77.41
69247;BME280;56358;56.328;43.992;2022-10-31T11:50:01;98849.16;;;0.87;77.69
69247;BME280;56358;56.328;43.992;2022-10-31T11:52:23;98841.56;;;0.82;77.95
69247;BME280;56358;56.328;43.992;2022-10-31T11:54:28;98850.41;;;0.81;78.32
69247;BME280;56358;56.328;43.992;2022-10-31T11:56:39;98843.09;;;0.72;79.19
69247;BME280;56358;56.328;43.992;2022-10-31T11:58:40;98848.25;;;0.73;79.54
69247;BME280;56358;56.328;43.992;2022-10-31T12:00:47;98847.53;;;0.71;79.61
69247;BME280;56358;56.328;43.992;2022-10-31T12:02:48;98847.31;;;0.74;80.07
69247;BME280;56358;56.328;43.992;2022-10-31T12:04:55;98842.25;;;0.71;80.35
69247;BME280;56358;56.328;43.992;2022-10-31T12:06:58;98843.09;;;0.72;80.73